Time;durP1;ratioP1;P1;durP2;ratioP2;P2;SDS_P1;SDS_P2;PMS_P1;PMS_P2;Temp;Humidity;BMP_temperature;BMP_pressure;BME280_temperature;BME280_humidity;BME280_pressure;Samples;Min_cycle;Max_cycle;Signal;HPM_P1;HPM_P2
2022/12/09 00:00:32;;;;;;;74.45;36.35;;;2.50;99.90;;;;;;5052822;28;20103;-68
2022/12/09 00:02:58;;;;;;;69.13;34.70;;;2.50;99.90;;;;;;5070627;28;20078;-69
2022/12/09 00:05:23;;;;;;;80.13;37.22;;;2.40;99.90;;;;;;5070427;28;20094;-70
2022/12/09 00:07:49;;;;;;;77.90;37.60;;;2.40;99.90;;;;;;5070544;28;20127;-70
2022/12/09 00:10:15;;;;;;;80.20;36.88;;;2.40;99.90;;;;;;5070504;28;20361;-67
2022/12/09 00:12:40;;;;;;;80.43;36.60;;;2.50;99.90;;;;;;5086071;28;20056;-66
2022/12/09 00:15:07;;;;;;;78.40;36.75;;;2.50;99.90;;;;;;5090831;28;20066;-64
2022/12/09 00:17:33;;;;;;;79.70;40.30;;;2.50;99.90;;;;;;5090450;28;20034;-68
2022/12/09 00:19:59;;;;;;;71.93;36.10;;;2.50;99.90;;;;;;5090628;28;20036;-63
2022/12/09 00:22:28;;;;;;;79.32;36.08;;;2.50;99.90;;;;;;5090403;28;20833;-69
2022/12/09 00:24:53;;;;;;;87.20;40.90;;;2.50;99.90;;;;;;5090455;28;20027;-66
2022/12/09 00:27:19;;;;;;;92.28;44.10;;;2.50;99.90;;;;;;5090394;28;20032;-64
2022/12/09 00:29:45;;;;;;;97.63;43.88;;;2.50;99.90;;;;;;5090518;28;20056;-61
2022/12/09 00:32:10;;;;;;;92.15;44.08;;;2.40;99.90;;;;;;5084924;28;20032;-62
2022/12/09 00:34:36;;;;;;;96.85;45.63;;;2.50;99.90;;;;;;5069874;28;20575;-62
2022/12/09 00:37:02;;;;;;;92.28;46.05;;;2.40;99.90;;;;;;5070019;28;20079;-63
2022/12/09 00:39:27;;;;;;;100.07;48.72;;;2.40;99.90;;;;;;5070066;28;20033;-63
2022/12/09 00:41:53;;;;;;;105.32;50.53;;;2.50;99.90;;;;;;5069562;28;20879;-67
2022/12/09 00:44:19;;;;;;;111.32;52.80;;;2.40;99.90;;;;;;5052123;28;20028;-69
2022/12/09 00:46:44;;;;;;;106.18;52.25;;;2.50;99.90;;;;;;5070020;28;20044;-67
2022/12/09 00:49:10;;;;;;;103.13;49.25;;;2.50;99.90;;;;;;5069743;28;20051;-67
2022/12/09 00:51:36;;;;;;;101.28;47.47;;;2.50;99.90;;;;;;5069572;28;20025;-68
2022/12/09 00:54:02;;;;;;;96.47;48.15;;;2.50;99.90;;;;;;5069866;28;20017;-66
2022/12/09 00:56:29;;;;;;;90.22;42.47;;;2.50;99.90;;;;;;5069649;28;20031;-66
2022/12/09 00:58:55;;;;;;;73.78;37.35;;;2.50;99.90;;;;;;5069303;28;20029;-62
2022/12/09 01:01:22;;;;;;;77.47;35.97;;;2.40;99.90;;;;;;5069021;28;20099;-67
2022/12/09 01:03:47;;;;;;;73.60;34.77;;;2.40;99.90;;;;;;5069572;28;20032;-67
2022/12/09 01:06:17;;;;;;;68.93;33.22;;;2.40;99.90;;;;;;5069601;28;20111;-65
2022/12/09 01:08:43;;;;;;;69.15;34.35;;;2.40;99.90;;;;;;5069451;28;20032;-64
2022/12/09 01:11:17;;;;;;;65.30;34.45;;;2.40;99.90;;;;;;5069258;28;20047;-63
2022/12/09 01:13:42;;;;;;;78.65;36.67;;;2.40;99.90;;;;;;5069428;28;20050;-64
2022/12/09 01:16:20;;;;;;;69.47;36.13;;;2.40;99.90;;;;;;5069726;28;20570;-65
2022/12/09 01:18:46;;;;;;;70.05;36.08;;;2.30;99.90;;;;;;5069523;28;20036;-62
2022/12/09 01:21:13;;;;;;;;;;;2.40;99.90;;;;;;5069793;28;20064;-67
2022/12/09 01:23:39;;;;;;;78.72;38.47;;;2.40;99.90;;;;;;5069369;28;19916;-68
2022/12/09 01:26:06;;;;;;;85.05;40.38;;;2.40;99.90;;;;;;5069504;28;20029;-68
2022/12/09 01:28:34;;;;;;;77.03;40.40;;;2.40;99.90;;;;;;5069636;28;20028;-61
2022/12/09 01:31:12;;;;;;;68.43;35.35;;;2.40;99.90;;;;;;5069409;28;20391;-67
2022/12/09 01:33:39;;;;;;;68.65;34.40;;;2.40;99.90;;;;;;5069332;28;20020;-61
2022/12/09 01:36:07;;;;;;;65.70;33.28;;;2.40;99.90;;;;;;5051304;28;20028;-66
2022/12/09 01:38:34;;;;;;;56.10;31.10;;;2.30;99.90;;;;;;5069288;28;20529;-63
2022/12/09 01:41:00;;;;;;;67.13;33.72;;;2.30;99.90;;;;;;5069516;28;20111;-60
2022/12/09 01:43:26;;;;;;;54.75;28.75;;;2.30;99.90;;;;;;5069108;28;20049;-67
2022/12/09 01:45:52;;;;;;;55.53;29.25;;;2.30;99.90;;;;;;5069355;28;20095;-68
2022/12/09 01:48:21;;;;;;;49.78;27.17;;;2.30;99.90;;;;;;5069273;28;20153;-66
2022/12/09 01:51:00;;;;;;;49.97;28.40;;;2.20;99.90;;;;;;5069277;28;20025;-68
2022/12/09 01:53:36;;;;;;;55.42;27.65;;;2.30;99.90;;;;;;5069172;28;20031;-67
2022/12/09 01:56:07;;;;;;;50.88;28.75;;;2.30;99.90;;;;;;5069371;28;20062;-63
2022/12/09 01:58:33;;;;;;;43.92;24.55;;;2.30;99.90;;;;;;5069071;28;20027;-64
2022/12/09 02:00:59;;;;;;;38.90;22.55;;;2.30;99.90;;;;;;5069397;28;20020;-67
2022/12/09 02:03:25;;;;;;;39.38;22.15;;;2.30;99.90;;;;;;5068867;28;20037;-67
2022/12/09 02:05:51;;;;;;;43.42;22.40;;;2.30;99.90;;;;;;5038287;28;20064;-68
2022/12/09 02:08:18;;;;;;;43.05;23.63;;;2.30;99.90;;;;;;5051138;28;20029;-66
2022/12/09 02:11:03;;;;;;;;;;;2.30;99.90;;;;;;5050895;28;20064;-66
2022/12/09 02:13:28;;;;;;;36.78;19.00;;;2.30;99.90;;;;;;5073111;28;19916;-59
2022/12/09 02:15:57;;;;;;;36.90;20.25;;;2.30;99.90;;;;;;5073096;28;20047;-62
2022/12/09 02:18:56;;;;;;;38.00;20.48;;;2.30;99.90;;;;;;5073118;28;20040;-64
2022/12/09 02:21:36;;;;;;;41.38;22.27;;;2.30;99.90;;;;;;5073037;28;20527;-63
2022/12/09 02:24:22;;;;;;;38.35;18.58;;;2.30;99.90;;;;;;5072706;28;20048;-67
2022/12/09 02:27:16;;;;;;;31.45;17.33;;;2.30;99.90;;;;;;5072869;28;20017;-61
2022/12/09 02:30:20;;;;;;;29.77;16.75;;;2.30;99.90;;;;;;5059238;28;20172;-62
2022/12/09 02:33:11;;;;;;;31.63;17.60;;;2.30;99.90;;;;;;5072762;28;20035;-60
2022/12/09 02:35:55;;;;;;;30.88;17.73;;;2.30;99.90;;;;;;5072804;28;20162;-67
2022/12/09 02:38:30;;;;;;;31.33;16.60;;;2.30;99.90;;;;;;5073109;28;20386;-60
2022/12/09 02:41:24;;;;;;;31.30;17.80;;;2.30;99.90;;;;;;5072722;28;20031;-62
2022/12/09 02:43:55;;;;;;;27.75;14.43;;;2.30;99.90;;;;;;5069148;28;20510;-62
2022/12/09 02:46:22;;;;;;;31.33;17.08;;;2.30;99.90;;;;;;5072788;28;20025;-65
2022/12/09 02:48:54;;;;;;;27.90;14.90;;;2.30;99.90;;;;;;5072715;28;20024;-61
2022/12/09 02:51:22;;;;;;;29.70;15.75;;;2.30;99.90;;;;;;5072756;28;20025;-66
2022/12/09 02:53:52;;;;;;;25.08;14.32;;;2.30;99.90;;;;;;5054693;28;20115;-68
2022/12/09 02:56:20;;;;;;;31.63;14.80;;;2.30;99.90;;;;;;5072501;28;20021;-61
2022/12/09 02:58:47;;;;;;;26.77;14.93;;;2.30;99.90;;;;;;5072844;28;20111;-64
2022/12/09 03:01:31;;;;;;;25.02;14.77;;;2.30;99.90;;;;;;5072261;28;20353;-68
2022/12/09 03:03:56;;;;;;;25.20;14.52;;;2.30;99.90;;;;;;5072340;28;20118;-62
2022/12/09 03:06:29;;;;;;;29.08;15.52;;;2.30;99.90;;;;;;5072300;28;20067;-61
2022/12/09 03:09:15;;;;;;;27.95;15.63;;;2.30;99.90;;;;;;5072334;28;20031;-68
2022/12/09 03:11:41;;;;;;;30.60;17.10;;;2.30;99.90;;;;;;5072224;28;20040;-61
2022/12/09 03:14:17;;;;;;;34.63;17.63;;;2.30;99.90;;;;;;5072056;28;20369;-61
2022/12/09 03:16:56;;;;;;;31.48;17.60;;;2.40;99.90;;;;;;5072090;28;20032;-65
2022/12/09 03:19:26;;;;;;;30.08;17.52;;;2.40;99.90;;;;;;5071977;28;20036;-68
2022/12/09 03:21:56;;;;;;;31.42;17.00;;;2.30;99.90;;;;;;5071909;28;20024;-67
2022/12/09 03:24:27;;;;;;;32.00;18.05;;;2.40;99.90;;;;;;5071676;28;20028;-67
2022/12/09 03:26:53;;;;;;;32.08;18.88;;;2.30;99.90;;;;;;5072012;28;20024;-68
2022/12/09 03:29:23;;;;;;;33.40;17.85;;;2.30;99.90;;;;;;5071980;28;20494;-70
2022/12/09 03:31:51;;;;;;;29.00;17.10;;;2.40;99.90;;;;;;5071847;28;20033;-60
2022/12/09 03:34:21;;;;;;;30.80;17.38;;;2.40;99.90;;;;;;5071823;28;20394;-60
2022/12/09 03:36:49;;;;;;;30.23;17.10;;;2.40;99.90;;;;;;5071587;28;20029;-60
2022/12/09 03:39:19;;;;;;;27.80;15.90;;;2.40;99.90;;;;;;5071709;28;20060;-66
2022/12/09 03:41:49;;;;;;;27.90;16.23;;;2.40;99.90;;;;;;5071586;28;20028;-66
2022/12/09 03:44:49;;;;;;;30.20;16.92;;;2.40;99.90;;;;;;5071774;28;20037;-61
2022/12/09 03:47:14;;;;;;;29.40;16.90;;;2.30;99.90;;;;;;5071589;28;20028;-70
2022/12/09 03:49:40;;;;;;;26.48;16.25;;;2.30;99.90;;;;;;5071490;28;20021;-70
2022/12/09 03:52:30;;;;;;;29.67;16.50;;;2.40;99.90;;;;;;5071397;28;20024;-68
2022/12/09 03:55:12;;;;;;;32.08;17.05;;;2.40;99.90;;;;;;5071500;28;20024;-65
2022/12/09 03:57:41;;;;;;;26.10;16.27;;;2.30;99.90;;;;;;5071504;28;20032;-67
2022/12/09 04:00:07;;;;;;;29.55;16.55;;;2.30;99.90;;;;;;5053395;28;20028;-66
2022/12/09 04:02:33;;;;;;;31.25;16.90;;;2.30;99.90;;;;;;5031052;28;20366;-69
2022/12/09 04:04:58;;;;;;;30.10;17.45;;;2.20;99.90;;;;;;5031246;28;20048;-69
2022/12/09 04:07:24;;;;;;;30.58;18.00;;;2.20;99.90;;;;;;5031141;28;20025;-68
2022/12/09 04:09:50;;;;;;;34.90;17.95;;;2.20;99.90;;;;;;5031189;28;20489;-61
2022/12/09 04:12:15;;;;;;;28.73;17.25;;;2.10;99.90;;;;;;5028611;28;20052;-60
2022/12/09 04:14:41;;;;;;;30.92;18.63;;;2.20;99.90;;;;;;5051105;28;20503;-60
2022/12/09 04:17:06;;;;;;;36.67;19.85;;;2.20;99.90;;;;;;5051023;28;20396;-61
2022/12/09 04:19:32;;;;;;;32.63;19.98;;;2.10;99.90;;;;;;5050676;28;20021;-63
2022/12/09 04:21:58;;;;;;;34.97;19.63;;;2.10;99.90;;;;;;5050704;28;20040;-68
2022/12/09 04:24:24;;;;;;;32.27;18.63;;;2.10;99.90;;;;;;5050762;28;20748;-61
2022/12/09 04:26:50;;;;;;;36.15;19.75;;;2.10;99.90;;;;;;5050749;28;20088;-64
2022/12/09 04:29:15;;;;;;;31.00;18.35;;;2.00;99.90;;;;;;5050794;28;20056;-66
2022/12/09 04:31:41;;;;;;;33.90;20.73;;;2.00;99.90;;;;;;5050681;28;20143;-69
2022/12/09 04:34:07;;;;;;;33.55;19.45;;;2.00;99.90;;;;;;5048898;28;20079;-68
2022/12/09 04:36:32;;;;;;;31.40;18.63;;;2.00;99.90;;;;;;5051579;28;20036;-68
2022/12/09 04:38:58;;;;;;;35.88;20.38;;;1.90;99.90;;;;;;5091109;28;20116;-62
2022/12/09 04:41:24;;;;;;;33.38;20.83;;;2.00;99.90;;;;;;5090868;28;20504;-65
2022/12/09 04:43:49;;;;;;;36.45;20.95;;;2.00;99.90;;;;;;5090711;28;20115;-61
2022/12/09 04:46:17;;;;;;;34.72;22.00;;;2.00;99.90;;;;;;5090716;28;20112;-60
2022/12/09 04:48:43;;;;;;;39.05;22.33;;;1.90;99.90;;;;;;5090704;28;20036;-61
2022/12/09 04:51:13;;;;;;;39.57;22.90;;;1.90;99.90;;;;;;5090627;28;20051;-60
2022/12/09 04:53:40;;;;;;;40.65;23.17;;;1.90;99.90;;;;;;5090765;28;20262;-66
2022/12/09 04:56:12;;;;;;;35.17;21.00;;;1.90;99.90;;;;;;5090692;28;20020;-64
2022/12/09 04:58:38;;;;;;;38.85;22.05;;;1.80;99.90;;;;;;5090581;28;20066;-62
2022/12/09 05:01:08;;;;;;;38.00;22.38;;;1.80;99.90;;;;;;5085665;28;20028;-63
2022/12/09 05:03:34;;;;;;;45.28;25.10;;;1.80;99.90;;;;;;5090241;28;20121;-68
2022/12/09 05:06:03;;;;;;;45.00;25.92;;;1.80;99.90;;;;;;5082604;28;20111;-61
2022/12/09 05:08:29;;;;;;;46.10;26.02;;;1.70;99.90;;;;;;5069840;28;20024;-70
2022/12/09 05:10:54;;;;;;;49.65;28.70;;;1.70;99.90;;;;;;5069754;28;20430;-61
2022/12/09 05:13:20;;;;;;;58.15;28.92;;;1.70;99.90;;;;;;5070058;28;20472;-60
2022/12/09 05:15:46;;;;;;;57.20;31.25;;;1.60;99.90;;;;;;5070007;28;20423;-62
2022/12/09 05:18:11;;;;;;;64.53;32.78;;;1.60;99.90;;;;;;5069664;28;20036;-60
2022/12/09 05:20:39;;;;;;;58.60;32.72;;;1.60;99.90;;;;;;5069959;28;20024;-62
2022/12/09 05:23:04;;;;;;;;;;;1.60;99.90;;;;;;5070150;28;20089;-69
2022/12/09 05:25:30;;;;;;;58.35;31.40;;;1.60;99.90;;;;;;5069779;28;20040;-67
2022/12/09 05:27:56;;;;;;;66.97;35.20;;;1.60;99.90;;;;;;5069680;28;20037;-65
2022/12/09 05:30:21;;;;;;;69.10;35.90;;;1.60;99.90;;;;;;5069753;28;20027;-62
2022/12/09 05:32:47;;;;;;;70.15;36.83;;;1.60;99.90;;;;;;5069628;28;20035;-60
2022/12/09 05:35:12;;;;;;;64.70;38.00;;;1.60;99.90;;;;;;5051692;28;20107;-61
2022/12/09 05:37:38;;;;;;;71.53;37.63;;;1.60;99.90;;;;;;5069680;28;20025;-62
2022/12/09 05:40:04;;;;;;;65.25;35.13;;;1.60;99.90;;;;;;5069596;28;20499;-62
2022/12/09 05:42:30;;;;;;;66.70;34.58;;;1.50;99.90;;;;;;5073737;28;20479;-59
2022/12/09 05:44:56;;;;;;;69.50;36.88;;;1.50;99.90;;;;;;5080836;28;20028;-61
2022/12/09 05:47:21;;;;;;;67.53;37.28;;;1.40;99.90;;;;;;5085094;28;20038;-62
2022/12/09 05:49:47;;;;;;;72.55;36.63;;;1.40;99.90;;;;;;5085332;28;20032;-63
2022/12/09 05:52:13;;;;;;;76.22;38.53;;;1.40;99.90;;;;;;5084113;28;20024;-62
2022/12/09 05:54:40;;;;;;;77.15;39.83;;;1.40;99.90;;;;;;5085222;28;20032;-64
2022/12/09 05:57:05;;;;;;;78.07;40.72;;;1.30;99.90;;;;;;5084992;28;20519;-61
2022/12/09 05:59:31;;;;;;;79.22;39.92;;;1.30;99.90;;;;;;5087147;28;20111;-61
2022/12/09 06:01:57;;;;;;;80.13;40.40;;;1.20;99.90;;;;;;5081429;28;20059;-62
2022/12/09 06:04:22;;;;;;;81.85;40.63;;;1.20;99.90;;;;;;5086456;28;20463;-62
2022/12/09 06:06:48;;;;;;;77.72;40.83;;;1.20;99.90;;;;;;5085752;28;20051;-62
2022/12/09 06:09:13;;;;;;;81.68;39.63;;;1.20;99.90;;;;;;5088647;28;20792;-62
2022/12/09 06:11:40;;;;;;;75.20;38.85;;;1.30;99.90;;;;;;5085426;28;20127;-70
2022/12/09 06:14:07;;;;;;;72.35;39.03;;;1.30;99.90;;;;;;5083449;28;20020;-63
2022/12/09 06:16:33;;;;;;;79.00;41.03;;;1.30;99.90;;;;;;5063613;28;21741;-68
2022/12/09 06:18:58;;;;;;;81.18;41.63;;;1.20;99.90;;;;;;5056150;28;20030;-66
2022/12/09 06:21:24;;;;;;;73.85;40.83;;;1.20;99.90;;;;;;5055927;28;20499;-65
2022/12/09 06:23:50;;;;;;;85.85;42.13;;;1.20;99.90;;;;;;5055743;28;20080;-62
2022/12/09 06:26:22;;;;;;;87.07;44.37;;;1.20;99.90;;;;;;5055789;28;20630;-68
2022/12/09 06:28:48;;;;;;;87.40;41.80;;;1.20;99.90;;;;;;5055769;28;20630;-67
2022/12/09 06:31:14;;;;;;;82.07;41.97;;;1.20;99.90;;;;;;5055927;28;20536;-67
2022/12/09 06:33:39;;;;;;;84.53;43.03;;;1.20;99.90;;;;;;5054808;28;20033;-67
2022/12/09 06:36:05;;;;;;;71.50;41.67;;;1.20;99.90;;;;;;5054555;28;20092;-66
2022/12/09 06:38:32;;;;;;;84.50;43.67;;;1.20;99.90;;;;;;5055313;28;20029;-67
2022/12/09 06:40:57;;;;;;;78.15;40.53;;;1.20;99.90;;;;;;5054774;28;20083;-62
2022/12/09 06:43:23;;;;;;;60.72;37.05;;;1.20;99.90;;;;;;5054364;28;20037;-64
2022/12/09 06:45:48;;;;;;;67.57;36.15;;;1.20;99.90;;;;;;5054641;28;20072;-68
2022/12/09 06:48:14;;;;;;;77.00;41.58;;;1.10;99.90;;;;;;5055042;28;20107;-64
2022/12/09 06:50:40;;;;;;;85.95;42.05;;;1.10;99.90;;;;;;5054981;28;20648;-61
2022/12/09 06:53:05;;;;;;;73.13;39.70;;;1.20;99.90;;;;;;5055174;28;20029;-64
2022/12/09 06:55:31;;;;;;;78.68;40.05;;;1.20;99.90;;;;;;5054972;28;20546;-63
2022/12/09 06:57:58;;;;;;;75.78;40.60;;;1.20;99.90;;;;;;5050807;28;20857;-61
2022/12/09 07:00:24;;;;;;;74.05;36.55;;;1.10;99.90;;;;;;5051098;28;20029;-66
2022/12/09 07:02:51;;;;;;;69.07;37.95;;;1.10;99.90;;;;;;5051371;28;20071;-62
2022/12/09 07:05:17;;;;;;;71.25;38.47;;;1.00;99.90;;;;;;5051951;28;20437;-66
2022/12/09 07:07:42;;;;;;;68.55;36.92;;;1.00;99.90;;;;;;5079862;28;20515;-66
2022/12/09 07:10:09;;;;;;;66.30;36.58;;;1.00;99.90;;;;;;5092383;28;20494;-65
2022/12/09 07:12:35;;;;;;;65.30;35.13;;;1.00;99.90;;;;;;5092075;28;20079;-66
2022/12/09 07:15:01;;;;;;;68.18;35.70;;;1.00;99.90;;;;;;5092309;28;20036;-62
2022/12/09 07:17:27;;;;;;;69.38;36.08;;;1.10;99.90;;;;;;5092442;28;20024;-63
2022/12/09 07:19:52;;;;;;;63.30;37.53;;;1.10;99.90;;;;;;5092049;28;20066;-61
2022/12/09 07:22:18;;;;;;;66.68;35.20;;;1.00;99.90;;;;;;5074335;28;20161;-64
2022/12/09 07:24:44;;;;;;;68.82;35.97;;;1.00;99.90;;;;;;5091986;28;20068;-67
2022/12/09 07:27:13;;;;;;;78.63;39.42;;;1.00;99.90;;;;;;5091878;28;20372;-67
2022/12/09 07:29:39;;;;;;;81.32;42.13;;;1.00;99.90;;;;;;5091978;28;20380;-60
2022/12/09 07:32:05;;;;;;;97.07;48.10;;;0.90;99.90;;;;;;5092054;28;20020;-60
2022/12/09 07:34:30;;;;;;;129.40;65.83;;;0.90;99.90;;;;;;5092026;28;20020;-65
2022/12/09 07:36:56;;;;;;;148.05;77.70;;;0.90;99.90;;;;;;5073658;28;20031;-65
2022/12/09 07:39:22;;;;;;;149.07;77.93;;;0.90;99.90;;;;;;5091703;28;20048;-62
2022/12/09 07:41:53;;;;;;;165.13;86.75;;;0.90;99.90;;;;;;5073527;28;20028;-61
2022/12/09 07:44:18;;;;;;;155.07;82.88;;;0.90;99.90;;;;;;5073473;28;20040;-63
2022/12/09 07:46:44;;;;;;;167.85;90.35;;;0.90;99.90;;;;;;5091867;28;20034;-66
2022/12/09 07:49:10;;;;;;;176.95;95.03;;;0.90;99.90;;;;;;5091550;28;20031;-67
2022/12/09 07:51:36;;;;;;;187.30;102.03;;;0.80;99.90;;;;;;5091626;28;20051;-63
2022/12/09 07:54:02;;;;;;;260.02;135.07;;;0.90;99.90;;;;;;5091682;28;20073;-66
2022/12/09 07:56:27;;;;;;;275.63;141.80;;;0.80;99.90;;;;;;5091302;28;20514;-67
2022/12/09 07:58:53;;;;;;;335.48;161.60;;;0.90;99.90;;;;;;5091534;28;20027;-67
2022/12/09 08:01:25;;;;;;;343.08;172.65;;;0.90;99.90;;;;;;5091314;28;20073;-67
2022/12/09 08:03:51;;;;;;;333.00;163.95;;;1.10;99.90;;;;;;5090972;28;20479;-68
2022/12/09 08:06:20;;;;;;;302.02;150.85;;;1.00;99.90;;;;;;5089448;28;20031;-62
2022/12/09 08:08:46;;;;;;;326.27;166.02;;;1.10;99.90;;;;;;5070567;28;20067;-64
2022/12/09 08:11:18;;;;;;;431.00;211.40;;;1.20;99.90;;;;;;5070742;28;20452;-67
2022/12/09 08:13:44;;;;;;;401.15;196.52;;;1.20;99.90;;;;;;5070911;28;20103;-62
2022/12/09 08:16:12;;;;;;;353.38;173.73;;;1.20;99.90;;;;;;5052703;28;20133;-63
2022/12/09 08:18:38;;;;;;;283.08;145.45;;;1.20;99.90;;;;;;5070770;28;20112;-62
2022/12/09 08:21:07;;;;;;;261.48;123.15;;;1.30;99.90;;;;;;5070667;28;20107;-64
2022/12/09 08:23:33;;;;;;;230.98;114.15;;;1.30;99.90;;;;;;5070330;28;20392;-65
2022/12/09 08:25:58;;;;;;;259.83;128.30;;;1.40;99.90;;;;;;5070489;28;20016;-65
2022/12/09 08:28:24;;;;;;;268.83;135.80;;;1.40;99.90;;;;;;5070431;28;20028;-63
2022/12/09 08:30:50;;;;;;;236.85;126.93;;;1.40;99.90;;;;;;5070464;28;20480;-63
2022/12/09 08:33:16;;;;;;;216.60;112.53;;;1.50;99.90;;;;;;5070405;28;20032;-68
2022/12/09 08:35:42;;;;;;;209.07;104.10;;;1.50;99.90;;;;;;5070499;28;20464;-65
2022/12/09 08:38:08;;;;;;;188.43;102.17;;;1.50;99.90;;;;;;5070321;28;20024;-61
2022/12/09 08:40:34;;;;;;;187.67;101.07;;;1.50;99.90;;;;;;5070387;28;20037;-62
2022/12/09 08:43:03;;;;;;;187.57;102.20;;;1.60;99.90;;;;;;5070325;28;20051;-63
2022/12/09 08:45:28;;;;;;;187.30;107.63;;;1.60;99.90;;;;;;5070220;28;20070;-67
2022/12/09 08:47:54;;;;;;;202.27;111.38;;;1.70;99.90;;;;;;5070537;28;20036;-67
2022/12/09 08:50:20;;;;;;;214.93;121.30;;;1.60;99.90;;;;;;5070211;28;20403;-64
2022/12/09 08:52:45;;;;;;;210.00;121.50;;;1.70;99.90;;;;;;5070162;28;20043;-62
2022/12/09 08:55:11;;;;;;;214.52;120.55;;;1.80;99.90;;;;;;5070207;28;20048;-62
2022/12/09 08:57:36;;;;;;;205.20;118.90;;;1.80;99.90;;;;;;5070080;28;20454;-63
2022/12/09 09:00:03;;;;;;;204.82;117.32;;;1.80;99.90;;;;;;5070364;28;20027;-63
2022/12/09 09:02:29;;;;;;;203.80;114.80;;;1.90;99.90;;;;;;5069993;28;20074;-64
2022/12/09 09:04:55;;;;;;;209.30;113.95;;;2.00;99.90;;;;;;5070285;28;20081;-60
2022/12/09 09:07:21;;;;;;;196.55;109.53;;;2.10;99.90;;;;;;5077413;28;20028;-67
2022/12/09 09:09:47;;;;;;;206.13;117.82;;;2.10;99.90;;;;;;5090027;28;20039;-67
2022/12/09 09:12:12;;;;;;;208.88;117.35;;;2.20;99.90;;;;;;5090217;28;20056;-66
2022/12/09 09:14:38;;;;;;;223.25;123.35;;;2.20;99.90;;;;;;5090160;28;20024;-63
2022/12/09 09:17:03;;;;;;;218.82;122.13;;;2.30;99.90;;;;;;5090283;28;20472;-62
2022/12/09 09:19:30;;;;;;;204.20;118.60;;;2.30;99.90;;;;;;5089963;28;20043;-63
2022/12/09 09:21:55;;;;;;;221.27;120.38;;;2.30;99.90;;;;;;5071358;28;20031;-63
2022/12/09 09:24:23;;;;;;;221.05;121.20;;;2.40;99.90;;;;;;5090261;28;20032;-62
2022/12/09 09:26:50;;;;;;;244.50;131.23;;;2.50;99.90;;;;;;5089888;28;20476;-64
2022/12/09 09:29:18;;;;;;;320.27;158.23;;;2.50;99.90;;;;;;5090148;28;20036;-63
2022/12/09 09:31:47;;;;;;;306.00;153.15;;;2.50;99.90;;;;;;5090098;28;20467;-63
2022/12/09 09:34:13;;;;;;;269.58;134.70;;;2.50;99.90;;;;;;5089915;28;20032;-65
2022/12/09 09:36:39;;;;;;;252.13;131.00;;;2.50;99.90;;;;;;5089829;28;20024;-65
2022/12/09 09:39:05;;;;;;;250.10;121.90;;;2.60;99.90;;;;;;5089811;28;20028;-65
2022/12/09 09:41:56;;;;;;;224.68;117.15;;;2.60;99.90;;;;;;5071602;28;20024;-67
2022/12/09 09:44:37;;;;;;;223.45;109.68;;;2.70;99.90;;;;;;5090004;28;20135;-66
2022/12/09 09:47:14;;;;;;;210.45;106.95;;;2.80;99.90;;;;;;5089813;28;20028;-63
2022/12/09 09:49:42;;;;;;;183.13;97.20;;;2.80;99.90;;;;;;5089841;28;20164;-63
2022/12/09 09:52:24;;;;;;;182.70;97.47;;;2.90;99.90;;;;;;5089707;28;20487;-65
2022/12/09 09:54:50;;;;;;;186.38;99.80;;;3.00;99.90;;;;;;5089488;28;20028;-65
2022/12/09 09:57:31;;;;;;;193.70;101.40;;;3.10;99.90;;;;;;5089809;28;20067;-63
2022/12/09 10:00:27;;;;;;;191.38;100.43;;;3.10;99.90;;;;;;5089595;28;20085;-63
2022/12/09 10:03:01;;;;;;;164.75;91.18;;;3.20;99.90;;;;;;5071402;28;20052;-67
2022/12/09 10:05:33;;;;;;;173.23;91.45;;;3.20;99.90;;;;;;5089918;28;20021;-64
2022/12/09 10:08:14;;;;;;;183.88;93.22;;;3.20;99.90;;;;;;5074255;28;20036;-62
2022/12/09 10:10:54;;;;;;;190.25;95.38;;;3.20;99.90;;;;;;5069333;28;20031;-62
2022/12/09 10:13:30;;;;;;;193.43;100.53;;;3.30;99.90;;;;;;5069089;28;20544;-64
2022/12/09 10:16:10;;;;;;;181.80;98.22;;;3.40;99.90;;;;;;5069527;28;20105;-65
2022/12/09 10:18:44;;;;;;;162.98;92.53;;;3.50;99.90;;;;;;5069361;28;20361;-66
2022/12/09 10:21:16;;;;;;;143.70;76.00;;;3.50;99.90;;;;;;5069084;28;20028;-63
2022/12/09 10:23:43;;;;;;;134.55;72.50;;;3.50;99.90;;;;;;5069252;28;20123;-64
2022/12/09 10:26:17;;;;;;;133.20;69.35;;;3.50;99.90;;;;;;5069077;28;20024;-67
2022/12/09 10:28:46;;;;;;;125.72;67.45;;;3.60;99.90;;;;;;5069296;28;20483;-63
2022/12/09 10:31:12;;;;;;;127.97;64.97;;;3.60;99.90;;;;;;5069278;28;20100;-64
2022/12/09 10:33:39;;;;;;;112.65;61.17;;;3.60;99.90;;;;;;5071141;28;20427;-63
2022/12/09 10:36:17;;;;;;;111.63;58.28;;;3.60;99.90;;;;;;5072986;28;20025;-67
2022/12/09 10:38:43;;;;;;;98.88;52.38;;;3.60;99.90;;;;;;5072777;28;20044;-63
2022/12/09 10:43:33;;;;;;;106.18;54.50;;;3.70;99.90;;;;;;5072718;28;20116;-64
2022/12/09 10:44:23;;;;;;;107.65;55.85;;;3.60;99.90;;;;;;5072624;28;20044;-62
2022/12/09 10:47:23;;;;;;;115.97;56.97;;;3.70;99.90;;;;;;5072615;28;20032;-69
2022/12/09 10:49:51;;;;;;;99.05;52.33;;;3.70;99.90;;;;;;5072652;28;20029;-67
2022/12/09 10:52:26;;;;;;;101.88;52.35;;;3.70;99.90;;;;;;5072522;28;20043;-68
2022/12/09 10:54:52;;;;;;;102.47;53.65;;;3.70;99.90;;;;;;5072427;28;20044;-69
2022/12/09 10:57:18;;;;;;;99.75;51.30;;;3.80;99.90;;;;;;5072380;28;20103;-66
2022/12/09 10:59:58;;;;;;;101.55;53.63;;;3.70;99.90;;;;;;5072198;28;20104;-69
2022/12/09 11:02:24;;;;;;;95.70;52.58;;;3.80;99.90;;;;;;5072266;28;20044;-67
2022/12/09 11:04:50;;;;;;;101.38;56.08;;;3.70;99.90;;;;;;5072243;28;20032;-63
2022/12/09 11:07:23;;;;;;;107.05;55.97;;;3.80;99.90;;;;;;5079088;28;20039;-63
2022/12/09 11:09:54;;;;;;;102.88;56.70;;;3.70;99.90;;;;;;5092759;28;20027;-65
2022/12/09 11:12:26;;;;;;;100.85;57.80;;;3.70;99.90;;;;;;5092071;28;20058;-64
2022/12/09 11:14:55;;;;;;;103.35;57.28;;;3.80;99.90;;;;;;5084377;28;20597;-65
2022/12/09 11:17:22;;;;;;;104.45;57.80;;;3.80;99.90;;;;;;5074167;28;20043;-66
2022/12/09 11:20:04;;;;;;;117.78;59.10;;;3.80;99.90;;;;;;5092283;28;20020;-64
2022/12/09 11:22:39;;;;;;;110.15;55.88;;;3.80;99.90;;;;;;5091914;28;20150;-65
2022/12/09 11:25:10;;;;;;;106.82;56.63;;;3.80;99.90;;;;;;5092086;28;20023;-67
2022/12/09 11:27:49;;;;;;;115.05;58.38;;;3.80;99.90;;;;;;5092182;28;20024;-67
2022/12/09 11:30:24;;;;;;;112.50;60.38;;;3.80;99.90;;;;;;5091991;28;20138;-67
2022/12/09 11:32:50;;;;;;;101.30;54.45;;;3.90;99.90;;;;;;5091970;28;20068;-66
2022/12/09 11:35:19;;;;;;;111.70;58.75;;;3.80;99.90;;;;;;5088828;28;20071;-61
2022/12/09 11:37:45;;;;;;;99.88;56.78;;;3.90;99.90;;;;;;5079447;28;20713;-63
2022/12/09 11:40:18;;;;;;;106.15;59.13;;;3.90;99.90;;;;;;5081481;28;20452;-65
2022/12/09 11:42:52;;;;;;;99.85;56.83;;;3.80;99.90;;;;;;5082469;28;20032;-63
2022/12/09 11:45:25;;;;;;;93.45;53.35;;;3.90;99.90;;;;;;5077430;28;20021;-65
2022/12/09 11:47:52;;;;;;;99.15;52.95;;;3.90;99.90;;;;;;5079297;28;20089;-66
2022/12/09 11:50:22;;;;;;;86.90;48.38;;;3.90;99.90;;;;;;5081330;28;20016;-65
2022/12/09 11:53:07;;;;;;;87.43;47.85;;;4.00;99.90;;;;;;5077945;28;20029;-65
2022/12/09 11:55:36;;;;;;;91.72;49.72;;;4.00;99.90;;;;;;5078805;28;20357;-65
2022/12/09 11:58:09;;;;;;;89.25;49.63;;;3.90;99.90;;;;;;5080780;28;20031;-64
2022/12/09 12:00:50;;;;;;;85.55;46.58;;;3.90;99.90;;;;;;5079377;28;20102;-67
2022/12/09 12:03:24;;;;;;;85.10;48.08;;;4.00;99.90;;;;;;5079645;28;20364;-67
2022/12/09 12:05:52;;;;;;;82.88;48.33;;;4.00;99.90;;;;;;5077800;28;20016;-67
2022/12/09 12:08:25;;;;;;;87.72;49.25;;;4.00;99.90;;;;;;5079270;28;20157;-66
2022/12/09 12:11:11;;;;;;;102.53;53.65;;;4.00;99.90;;;;;;5077889;28;20059;-65
2022/12/09 12:13:48;;;;;;;91.18;50.20;;;4.00;99.90;;;;;;5079700;28;20037;-67
2022/12/09 12:16:25;;;;;;;89.88;48.58;;;4.00;99.90;;;;;;5078642;28;20087;-70
2022/12/09 12:19:01;;;;;;;86.13;46.37;;;4.00;99.90;;;;;;5077588;28;20087;-68
2022/12/09 12:21:53;;;;;;;80.75;43.40;;;4.00;99.90;;;;;;5076739;28;20753;-64
2022/12/09 12:24:52;;;;;;;72.82;42.20;;;4.00;99.90;;;;;;5079735;28;20374;-70
2022/12/09 12:27:26;;;;;;;;;;;4.10;99.90;;;;;;5053334;28;20746;-67
2022/12/09 12:29:56;;;;;;;66.10;40.05;;;4.00;99.90;;;;;;5070488;28;19967;-67
2022/12/09 12:32:42;;;;;;;70.22;39.25;;;4.10;99.90;;;;;;5070548;28;20035;-66
2022/12/09 12:35:25;;;;;;;65.53;37.55;;;4.10;99.90;;;;;;5086893;28;20032;-68
2022/12/09 12:38:26;;;;;;;69.90;40.47;;;4.10;99.90;;;;;;5084332;28;20036;-65
2022/12/09 12:41:25;;;;;;;63.45;36.10;;;4.20;99.90;;;;;;5075893;28;20027;-66
2022/12/09 12:47:37;;;;;;;73.88;38.72;;;4.20;99.90;;;;;;5079961;28;20044;-66
2022/12/09 12:50:24;;;;;;;75.85;40.72;;;4.20;99.90;;;;;;5060699;28;20472;-64